sensor_id;sensor_type;location;lat;lon;timestamp;temperature;humidity
41944;DHT22;27636;52.610;13.244;2022-07-10T00:00:32;13.60;99.90
41944;DHT22;27636;52.610;13.244;2022-07-10T00:05:36;13.70;99.90
41944;DHT22;27636;52.610;13.244;2022-07-10T00:10:39;13.80;99.90
41944;DHT22;27636;52.610;13.244;2022-07-10T00:15:44;13.80;99.90
41944;DHT22;27636;52.610;13.244;2022-07-10T00:20:47;13.90;99.90
41944;DHT22;27636;52.610;13.244;2022-07-10T00:25:51;13.90;99.90
41944;DHT22;27636;52.610;13.244;2022-07-10T00:30:55;13.90;99.90
41944;DHT22;27636;52.610;13.244;2022-07-10T00:35:59;13.80;99.90
41944;DHT22;27636;52.610;13.244;2022-07-10T00:41:02;14.00;99.90
41944;DHT22;27636;52.610;13.244;2022-07-10T00:46:07;13.90;99.90
41944;DHT22;27636;52.610;13.244;2022-07-10T00:51:11;14.10;99.90
41944;DHT22;27636;52.610;13.244;2022-07-10T00:56:16;14.10;99.90
41944;DHT22;27636;52.610;13.244;2022-07-10T01:01:21;14.00;99.90
41944;DHT22;27636;52.610;13.244;2022-07-10T01:06:27;14.10;99.90
41944;DHT22;27636;52.610;13.244;2022-07-10T01:11:33;14.20;99.90
41944;DHT22;27636;52.610;13.244;2022-07-10T01:16:38;14.20;99.90
41944;DHT22;27636;52.610;13.244;2022-07-10T01:21:43;14.20;99.90
41944;DHT22;27636;52.610;13.244;2022-07-10T01:26:46;14.10;99.90
41944;DHT22;27636;52.610;13.244;2022-07-10T01:31:49;14.10;99.90
41944;DHT22;27636;52.610;13.244;2022-07-10T01:37:00;14.10;99.90
41944;DHT22;27636;52.610;13.244;2022-07-10T01:42:03;14.10;99.90
41944;DHT22;27636;52.610;13.244;2022-07-10T01:47:06;14.20;99.90
41944;DHT22;27636;52.610;13.244;2022-07-10T01:52:11;14.10;99.90
41944;DHT22;27636;52.610;13.244;2022-07-10T01:57:14;14.20;99.90
41944;DHT22;27636;52.610;13.244;2022-07-10T02:02:18;14.10;99.90
41944;DHT22;27636;52.610;13.244;2022-07-10T02:07:23;14.20;99.90
41944;DHT22;27636;52.610;13.244;2022-07-10T02:12:28;14.10;99.90
41944;DHT22;27636;52.610;13.244;2022-07-10T02:17:31;14.10;99.90
41944;DHT22;27636;52.610;13.244;2022-07-10T02:22:36;14.00;99.90
41944;DHT22;27636;52.610;13.244;2022-07-10T02:27:39;13.90;99.90
41944;DHT22;27636;52.610;13.244;2022-07-10T02:32:42;13.80;99.90
41944;DHT22;27636;52.610;13.244;2022-07-10T02:37:46;13.90;99.90
41944;DHT22;27636;52.610;13.244;2022-07-10T02:42:49;13.80;99.90
41944;DHT22;27636;52.610;13.244;2022-07-10T02:47:52;13.70;99.90
41944;DHT22;27636;52.610;13.244;2022-07-10T02:52:56;13.70;99.90
41944;DHT22;27636;52.610;13.244;2022-07-10T02:57:59;13.70;99.90
41944;DHT22;27636;52.610;13.244;2022-07-10T03:03:02;13.60;99.90
41944;DHT22;27636;52.610;13.244;2022-07-10T03:08:07;13.50;99.90
41944;DHT22;27636;52.610;13.244;2022-07-10T03:13:10;13.40;99.90
41944;DHT22;27636;52.610;13.244;2022-07-10T03:18:13;13.40;99.90
41944;DHT22;27636;52.610;13.244;2022-07-10T03:23:17;13.60;99.90
41944;DHT22;27636;52.610;13.244;2022-07-10T03:28:20;13.60;99.90
41944;DHT22;27636;52.610;13.244;2022-07-10T03:33:24;13.60;99.90
41944;DHT22;27636;52.610;13.244;2022-07-10T03:38:28;13.70;99.90
41944;DHT22;27636;52.610;13.244;2022-07-10T03:43:32;13.60;99.90
41944;DHT22;27636;52.610;13.244;2022-07-10T03:48:34;13.70;99.90
41944;DHT22;27636;52.610;13.244;2022-07-10T03:53:39;13.70;99.90
41944;DHT22;27636;52.610;13.244;2022-07-10T03:58:42;13.80;99.90
41944;DHT22;27636;52.610;13.244;2022-07-10T04:03:45;13.80;99.90
41944;DHT22;27636;52.610;13.244;2022-07-10T04:08:50;13.90;99.90
41944;DHT22;27636;52.610;13.244;2022-07-10T04:13:53;13.90;99.90
41944;DHT22;27636;52.610;13.244;2022-07-10T04:18:56;13.90;99.90
41944;DHT22;27636;52.610;13.244;2022-07-10T04:24:00;13.80;99.90
41944;DHT22;27636;52.610;13.244;2022-07-10T04:29:08;13.90;99.90
41944;DHT22;27636;52.610;13.244;2022-07-10T04:34:11;14.00;99.90
41944;DHT22;27636;52.610;13.244;2022-07-10T04:39:16;14.20;99.90
41944;DHT22;27636;52.610;13.244;2022-07-10T04:44:19;14.40;99.90
41944;DHT22;27636;52.610;13.244;2022-07-10T04:49:22;14.40;99.90
41944;DHT22;27636;52.610;13.244;2022-07-10T04:54:26;14.50;99.90
41944;DHT22;27636;52.610;13.244;2022-07-10T04:59:30;14.50;99.90
41944;DHT22;27636;52.610;13.244;2022-07-10T05:04:33;14.50;99.90
41944;DHT22;27636;52.610;13.244;2022-07-10T05:09:37;14.40;99.90
41944;DHT22;27636;52.610;13.244;2022-07-10T05:14:40;14.30;99.90
41944;DHT22;27636;52.610;13.244;2022-07-10T05:19:43;14.70;99.90
41944;DHT22;27636;52.610;13.244;2022-07-10T05:24:48;15.20;99.90
41944;DHT22;27636;52.610;13.244;2022-07-10T05:29:51;16.30;99.90
41944;DHT22;27636;52.610;13.244;2022-07-10T05:34:54;16.10;99.90
41944;DHT22;27636;52.610;13.244;2022-07-10T05:40:01;16.10;99.90
41944;DHT22;27636;52.610;13.244;2022-07-10T05:45:04;15.60;99.90
41944;DHT22;27636;52.610;13.244;2022-07-10T05:50:09;15.60;99.90
41944;DHT22;27636;52.610;13.244;2022-07-10T05:55:13;15.20;99.90
41944;DHT22;27636;52.610;13.244;2022-07-10T06:00:17;15.20;99.90
41944;DHT22;27636;52.610;13.244;2022-07-10T06:05:20;15.10;99.90
41944;DHT22;27636;52.610;13.244;2022-07-10T06:10:26;15.20;99.90
41944;DHT22;27636;52.610;13.244;2022-07-10T06:15:29;15.20;99.90
41944;DHT22;27636;52.610;13.244;2022-07-10T06:20:32;15.80;99.90
41944;DHT22;27636;52.610;13.244;2022-07-10T06:25:36;16.00;99.90
41944;DHT22;27636;52.610;13.244;2022-07-10T06:30:40;15.80;99.90
41944;DHT22;27636;52.610;13.244;2022-07-10T06:35:43;16.20;99.90
41944;DHT22;27636;52.610;13.244;2022-07-10T06:40:47;16.30;99.90
41944;DHT22;27636;52.610;13.244;2022-07-10T06:45:51;16.60;99.90
41944;DHT22;27636;52.610;13.244;2022-07-10T06:50:54;16.60;99.90
41944;DHT22;27636;52.610;13.244;2022-07-10T06:55:59;16.80;99.90
41944;DHT22;27636;52.610;13.244;2022-07-10T07:01:03;17.00;99.90
41944;DHT22;27636;52.610;13.244;2022-07-10T07:06:06;17.30;99.90
41944;DHT22;27636;52.610;13.244;2022-07-10T07:11:11;17.60;99.60
41944;DHT22;27636;52.610;13.244;2022-07-10T07:16:14;17.80;97.60
41944;DHT22;27636;52.610;13.244;2022-07-10T07:21:21;17.80;97.80
41944;DHT22;27636;52.610;13.244;2022-07-10T07:26:44;17.70;95.00
41944;DHT22;27636;52.610;13.244;2022-07-10T07:31:47;18.70;93.30
41944;DHT22;27636;52.610;13.244;2022-07-10T07:36:50;19.70;91.30
41944;DHT22;27636;52.610;13.244;2022-07-10T07:41:54;20.40;87.70
41944;DHT22;27636;52.610;13.244;2022-07-10T07:46:57;20.30;84.40
41944;DHT22;27636;52.610;13.244;2022-07-10T07:52:00;20.30;84.00
41944;DHT22;27636;52.610;13.244;2022-07-10T07:57:05;21.20;82.40
41944;DHT22;27636;52.610;13.244;2022-07-10T08:02:08;24.20;68.90
41944;DHT22;27636;52.610;13.244;2022-07-10T08:07:11;22.80;72.00
41944;DHT22;27636;52.610;13.244;2022-07-10T08:12:16;24.00;67.40
41944;DHT22;27636;52.610;13.244;2022-07-10T08:17:19;21.50;70.10
41944;DHT22;27636;52.610;13.244;2022-07-10T08:22:22;20.60;75.20
41944;DHT22;27636;52.610;13.244;2022-07-10T08:27:27;20.70;73.00
41944;DHT22;27636;52.610;13.244;2022-07-10T08:32:30;20.30;72.00
41944;DHT22;27636;52.610;13.244;2022-07-10T08:37:37;20.30;74.40
41944;DHT22;27636;52.610;13.244;2022-07-10T08:42:43;19.20;78.60
41944;DHT22;27636;52.610;13.244;2022-07-10T08:47:47;18.80;83.40
41944;DHT22;27636;52.610;13.244;2022-07-10T08:53:08;18.90;80.30
41944;DHT22;27636;52.610;13.244;2022-07-10T08:58:13;18.60;81.70
41944;DHT22;27636;52.610;13.244;2022-07-10T09:03:16;18.90;82.60
41944;DHT22;27636;52.610;13.244;2022-07-10T09:08:22;19.10;80.90
41944;DHT22;27636;52.610;13.244;2022-07-10T09:13:27;20.20;79.20
41944;DHT22;27636;52.610;13.244;2022-07-10T09:18:30;20.40;71.80
41944;DHT22;27636;52.610;13.244;2022-07-10T09:23:33;20.20;72.30
41944;DHT22;27636;52.610;13.244;2022-07-10T09:28:37;20.60;72.90
41944;DHT22;27636;52.610;13.244;2022-07-10T09:33:41;21.30;74.20
41944;DHT22;27636;52.610;13.244;2022-07-10T09:38:54;21.50;70.90
41944;DHT22;27636;52.610;13.244;2022-07-10T09:44:00;22.50;69.70
41944;DHT22;27636;52.610;13.244;2022-07-10T09:49:08;23.50;64.70
41944;DHT22;27636;52.610;13.244;2022-07-10T09:54:12;22.20;67.00
41944;DHT22;27636;52.610;13.244;2022-07-10T09:59:17;22.50;68.40
41944;DHT22;27636;52.610;13.244;2022-07-10T10:04:22;22.20;67.90
41944;DHT22;27636;52.610;13.244;2022-07-10T10:09:37;21.80;70.60
41944;DHT22;27636;52.610;13.244;2022-07-10T10:14:43;21.20;70.20
41944;DHT22;27636;52.610;13.244;2022-07-10T10:19:47;21.60;70.80
41944;DHT22;27636;52.610;13.244;2022-07-10T10:25:10;21.70;69.70
41944;DHT22;27636;52.610;13.244;2022-07-10T10:30:14;21.70;67.90
41944;DHT22;27636;52.610;13.244;2022-07-10T10:35:41;21.40;66.40
41944;DHT22;27636;52.610;13.244;2022-07-10T10:40:44;22.10;68.70
41944;DHT22;27636;52.610;13.244;2022-07-10T10:45:49;22.00;65.70
41944;DHT22;27636;52.610;13.244;2022-07-10T10:50:53;21.00;68.50
41944;DHT22;27636;52.610;13.244;2022-07-10T10:56:22;20.40;70.60
41944;DHT22;27636;52.610;13.244;2022-07-10T11:01:30;21.70;69.10
41944;DHT22;27636;52.610;13.244;2022-07-10T11:06:39;21.70;67.30
41944;DHT22;27636;52.610;13.244;2022-07-10T11:11:42;20.90;71.50
41944;DHT22;27636;52.610;13.244;2022-07-10T11:16:47;20.60;73.30
41944;DHT22;27636;52.610;13.244;2022-07-10T11:22:03;21.40;71.80
41944;DHT22;27636;52.610;13.244;2022-07-10T11:27:24;23.20;65.50
41944;DHT22;27636;52.610;13.244;2022-07-10T11:32:30;24.40;60.80
41944;DHT22;27636;52.610;13.244;2022-07-10T11:37:33;23.90;62.80
41944;DHT22;27636;52.610;13.244;2022-07-10T11:42:48;22.70;65.20
41944;DHT22;27636;52.610;13.244;2022-07-10T11:47:54;21.80;67.00
41944;DHT22;27636;52.610;13.244;2022-07-10T11:52:57;21.80;64.00
41944;DHT22;27636;52.610;13.244;2022-07-10T11:58:00;22.50;65.10
41944;DHT22;27636;52.610;13.244;2022-07-10T12:03:18;22.60;61.30
41944;DHT22;27636;52.610;13.244;2022-07-10T12:08:22;22.20;64.00
41944;DHT22;27636;52.610;13.244;2022-07-10T12:13:26;21.60;65.20
41944;DHT22;27636;52.610;13.244;2022-07-10T12:18:30;21.00;67.20
41944;DHT22;27636;52.610;13.244;2022-07-10T12:23:36;21.50;65.70
41944;DHT22;27636;52.610;13.244;2022-07-10T12:28:53;21.60;66.50
41944;DHT22;27636;52.610;13.244;2022-07-10T12:33:59;21.40;68.80
41944;DHT22;27636;52.610;13.244;2022-07-10T12:39:04;21.90;66.10
41944;DHT22;27636;52.610;13.244;2022-07-10T12:44:08;22.00;66.20
41944;DHT22;27636;52.610;13.244;2022-07-10T12:49:12;22.00;67.20
41944;DHT22;27636;52.610;13.244;2022-07-10T12:54:32;22.90;66.10
41944;DHT22;27636;52.610;13.244;2022-07-10T12:59:36;21.90;63.80
41944;DHT22;27636;52.610;13.244;2022-07-10T13:04:51;22.00;65.60
41944;DHT22;27636;52.610;13.244;2022-07-10T13:09:55;22.30;62.00
41944;DHT22;27636;52.610;13.244;2022-07-10T13:15:06;22.20;64.70
41944;DHT22;27636;52.610;13.244;2022-07-10T13:20:11;22.00;63.00
41944;DHT22;27636;52.610;13.244;2022-07-10T13:25:15;21.80;64.70
41944;DHT22;27636;52.610;13.244;2022-07-10T13:30:18;22.00;67.60
41944;DHT22;27636;52.610;13.244;2022-07-10T13:35:22;22.80;62.50
41944;DHT22;27636;52.610;13.244;2022-07-10T13:40:26;22.90;61.00
41944;DHT22;27636;52.610;13.244;2022-07-10T13:45:30;22.80;61.40
41944;DHT22;27636;52.610;13.244;2022-07-10T13:50:38;22.20;64.00
41944;DHT22;27636;52.610;13.244;2022-07-10T13:55:42;21.70;66.90
41944;DHT22;27636;52.610;13.244;2022-07-10T14:00:46;22.20;66.70
41944;DHT22;27636;52.610;13.244;2022-07-10T14:05:50;23.40;62.50
41944;DHT22;27636;52.610;13.244;2022-07-10T14:10:53;23.00;64.70
41944;DHT22;27636;52.610;13.244;2022-07-10T14:15:57;23.70;58.20
41944;DHT22;27636;52.610;13.244;2022-07-10T14:21:02;24.10;58.50
41944;DHT22;27636;52.610;13.244;2022-07-10T14:26:06;24.20;58.80
41944;DHT22;27636;52.610;13.244;2022-07-10T14:31:09;23.50;58.10
41944;DHT22;27636;52.610;13.244;2022-07-10T14:36:14;22.50;60.90
41944;DHT22;27636;52.610;13.244;2022-07-10T14:41:17;22.90;60.60
41944;DHT22;27636;52.610;13.244;2022-07-10T14:46:20;22.50;61.20
41944;DHT22;27636;52.610;13.244;2022-07-10T14:51:24;23.00;58.20
41944;DHT22;27636;52.610;13.244;2022-07-10T14:56:29;24.20;58.80
41944;DHT22;27636;52.610;13.244;2022-07-10T15:01:32;24.20;57.00
41944;DHT22;27636;52.610;13.244;2022-07-10T15:06:37;23.20;58.50
41944;DHT22;27636;52.610;13.244;2022-07-10T15:11:40;24.20;56.90
41944;DHT22;27636;52.610;13.244;2022-07-10T15:16:43;22.90;58.20
41944;DHT22;27636;52.610;13.244;2022-07-10T15:21:49;22.30;61.30
41944;DHT22;27636;52.610;13.244;2022-07-10T15:26:52;22.30;60.30
41944;DHT22;27636;52.610;13.244;2022-07-10T15:31:55;23.10;57.80
41944;DHT22;27636;52.610;13.244;2022-07-10T15:37:03;23.60;57.80
41944;DHT22;27636;52.610;13.244;2022-07-10T15:42:06;23.00;58.20
41944;DHT22;27636;52.610;13.244;2022-07-10T15:47:09;22.50;59.70
41944;DHT22;27636;52.610;13.244;2022-07-10T15:52:15;22.80;59.60
41944;DHT22;27636;52.610;13.244;2022-07-10T15:57:19;23.10;59.40
41944;DHT22;27636;52.610;13.244;2022-07-10T16:02:21;24.20;56.70
41944;DHT22;27636;52.610;13.244;2022-07-10T16:07:26;23.50;54.80
41944;DHT22;27636;52.610;13.244;2022-07-10T16:12:29;22.00;59.50
41944;DHT22;27636;52.610;13.244;2022-07-10T16:17:32;21.40;64.60
41944;DHT22;27636;52.610;13.244;2022-07-10T16:22:36;20.90;68.80
41944;DHT22;27636;52.610;13.244;2022-07-10T16:27:40;21.10;63.20
41944;DHT22;27636;52.610;13.244;2022-07-10T16:32:43;21.60;62.90
41944;DHT22;27636;52.610;13.244;2022-07-10T16:37:47;21.90;63.00
41944;DHT22;27636;52.610;13.244;2022-07-10T16:42:50;21.50;64.00
41944;DHT22;27636;52.610;13.244;2022-07-10T16:47:54;21.30;63.70
41944;DHT22;27636;52.610;13.244;2022-07-10T16:53:00;21.40;63.90
41944;DHT22;27636;52.610;13.244;2022-07-10T16:58:03;21.30;63.80
41944;DHT22;27636;52.610;13.244;2022-07-10T17:03:06;21.50;62.30
41944;DHT22;27636;52.610;13.244;2022-07-10T17:08:18;21.20;65.00
41944;DHT22;27636;52.610;13.244;2022-07-10T17:13:22;20.30;65.80
41944;DHT22;27636;52.610;13.244;2022-07-10T17:18:28;19.90;68.30
41944;DHT22;27636;52.610;13.244;2022-07-10T17:23:33;19.60;68.90
41944;DHT22;27636;52.610;13.244;2022-07-10T17:28:36;19.60;69.40
41944;DHT22;27636;52.610;13.244;2022-07-10T17:33:39;19.60;70.50
41944;DHT22;27636;52.610;13.244;2022-07-10T17:38:44;19.50;71.00
41944;DHT22;27636;52.610;13.244;2022-07-10T17:43:47;19.30;70.90
41944;DHT22;27636;52.610;13.244;2022-07-10T17:48:51;19.30;71.00
41944;DHT22;27636;52.610;13.244;2022-07-10T17:53:56;19.20;72.10
41944;DHT22;27636;52.610;13.244;2022-07-10T17:58:59;19.20;71.90
41944;DHT22;27636;52.610;13.244;2022-07-10T18:04:03;19.40;69.90
41944;DHT22;27636;52.610;13.244;2022-07-10T18:09:08;19.40;70.80
41944;DHT22;27636;52.610;13.244;2022-07-10T18:14:18;19.30;71.50
41944;DHT22;27636;52.610;13.244;2022-07-10T18:19:21;19.40;71.00
41944;DHT22;27636;52.610;13.244;2022-07-10T18:24:27;19.20;71.60
41944;DHT22;27636;52.610;13.244;2022-07-10T18:29:31;19.00;73.00
41944;DHT22;27636;52.610;13.244;2022-07-10T18:34:34;18.80;71.80
41944;DHT22;27636;52.610;13.244;2022-07-10T18:39:39;18.70;73.70
41944;DHT22;27636;52.610;13.244;2022-07-10T18:44:42;18.70;75.90
41944;DHT22;27636;52.610;13.244;2022-07-10T18:49:46;18.60;75.50
41944;DHT22;27636;52.610;13.244;2022-07-10T18:54:51;18.50;75.50
41944;DHT22;27636;52.610;13.244;2022-07-10T18:59:54;18.30;77.30
41944;DHT22;27636;52.610;13.244;2022-07-10T19:04:57;18.00;77.90
41944;DHT22;27636;52.610;13.244;2022-07-10T19:10:04;18.10;78.70
41944;DHT22;27636;52.610;13.244;2022-07-10T19:15:10;17.60;82.80
41944;DHT22;27636;52.610;13.244;2022-07-10T19:20:19;17.30;82.90
41944;DHT22;27636;52.610;13.244;2022-07-10T19:25:25;17.20;85.40
41944;DHT22;27636;52.610;13.244;2022-07-10T19:30:31;17.00;85.10
41944;DHT22;27636;52.610;13.244;2022-07-10T19:35:35;16.50;89.10
41944;DHT22;27636;52.610;13.244;2022-07-10T19:40:40;16.10;92.00
41944;DHT22;27636;52.610;13.244;2022-07-10T19:45:47;15.80;95.10
41944;DHT22;27636;52.610;13.244;2022-07-10T19:50:51;15.50;97.90
41944;DHT22;27636;52.610;13.244;2022-07-10T19:55:55;15.30;98.90
41944;DHT22;27636;52.610;13.244;2022-07-10T20:00:58;15.00;99.90
41944;DHT22;27636;52.610;13.244;2022-07-10T20:06:02;14.80;99.90
41944;DHT22;27636;52.610;13.244;2022-07-10T20:11:08;14.50;99.90
41944;DHT22;27636;52.610;13.244;2022-07-10T20:16:11;14.30;99.90
41944;DHT22;27636;52.610;13.244;2022-07-10T20:21:14;14.20;99.90
41944;DHT22;27636;52.610;13.244;2022-07-10T20:26:19;14.10;99.90
41944;DHT22;27636;52.610;13.244;2022-07-10T20:31:22;13.90;99.90
41944;DHT22;27636;52.610;13.244;2022-07-10T20:36:25;13.70;99.90
41944;DHT22;27636;52.610;13.244;2022-07-10T20:41:48;13.60;99.90
41944;DHT22;27636;52.610;13.244;2022-07-10T20:46:51;13.50;99.90
41944;DHT22;27636;52.610;13.244;2022-07-10T20:51:55;13.30;99.90
41944;DHT22;27636;52.610;13.244;2022-07-10T20:57:00;13.20;99.90
41944;DHT22;27636;52.610;13.244;2022-07-10T21:02:03;13.00;99.90
41944;DHT22;27636;52.610;13.244;2022-07-10T21:07:06;12.90;99.90
41944;DHT22;27636;52.610;13.244;2022-07-10T21:12:11;12.80;99.90
41944;DHT22;27636;52.610;13.244;2022-07-10T21:17:14;12.70;99.90
41944;DHT22;27636;52.610;13.244;2022-07-10T21:22:17;12.50;99.90
41944;DHT22;27636;52.610;13.244;2022-07-10T21:27:21;12.50;99.90
41944;DHT22;27636;52.610;13.244;2022-07-10T21:32:25;12.40;99.90
41944;DHT22;27636;52.610;13.244;2022-07-10T21:37:33;12.30;99.90
41944;DHT22;27636;52.610;13.244;2022-07-10T21:42:37;12.60;99.90
41944;DHT22;27636;52.610;13.244;2022-07-10T21:47:40;13.00;99.90
41944;DHT22;27636;52.610;13.244;2022-07-10T21:52:44;13.30;99.90
41944;DHT22;27636;52.610;13.244;2022-07-10T21:57:48;13.60;99.90
41944;DHT22;27636;52.610;13.244;2022-07-10T22:02:52;13.70;99.90
41944;DHT22;27636;52.610;13.244;2022-07-10T22:07:55;13.90;99.90
41944;DHT22;27636;52.610;13.244;2022-07-10T22:13:00;13.90;99.90
41944;DHT22;27636;52.610;13.244;2022-07-10T22:18:03;14.00;99.90
41944;DHT22;27636;52.610;13.244;2022-07-10T22:23:06;14.00;99.90
41944;DHT22;27636;52.610;13.244;2022-07-10T22:28:11;14.20;99.90
41944;DHT22;27636;52.610;13.244;2022-07-10T22:33:15;14.20;99.90
41944;DHT22;27636;52.610;13.244;2022-07-10T22:38:21;14.20;99.90
41944;DHT22;27636;52.610;13.244;2022-07-10T22:43:25;14.40;99.90
41944;DHT22;27636;52.610;13.244;2022-07-10T22:48:28;14.60;99.90
41944;DHT22;27636;52.610;13.244;2022-07-10T22:53:31;14.80;99.90
41944;DHT22;27636;52.610;13.244;2022-07-10T22:58:36;14.90;99.90
41944;DHT22;27636;52.610;13.244;2022-07-10T23:03:39;14.90;99.90
41944;DHT22;27636;52.610;13.244;2022-07-10T23:08:43;15.00;99.90
41944;DHT22;27636;52.610;13.244;2022-07-10T23:13:47;15.10;99.90
41944;DHT22;27636;52.610;13.244;2022-07-10T23:18:51;15.10;99.90
41944;DHT22;27636;52.610;13.244;2022-07-10T23:23:54;15.10;99.90
41944;DHT22;27636;52.610;13.244;2022-07-10T23:28:59;15.10;99.90
41944;DHT22;27636;52.610;13.244;2022-07-10T23:34:02;15.10;99.90
41944;DHT22;27636;52.610;13.244;2022-07-10T23:39:05;15.00;99.90
41944;DHT22;27636;52.610;13.244;2022-07-10T23:44:09;14.90;99.90
41944;DHT22;27636;52.610;13.244;2022-07-10T23:49:12;15.00;99.90
41944;DHT22;27636;52.610;13.244;2022-07-10T23:54:35;15.00;99.90
41944;DHT22;27636;52.610;13.244;2022-07-10T23:59:46;14.90;99.90
